Time;durP1;ratioP1;P1;durP2;ratioP2;P2;SDS_P1;SDS_P2;PMS_P1;PMS_P2;Temp;Humidity;BMP_temperature;BMP_pressure;BME280_temperature;BME280_humidity;BME280_pressure;Samples;Min_cycle;Max_cycle;Signal;HPM_P1;HPM_P2
2021/12/16 00:09:05;;;;;;;21.50;9.05;;;7.80;99.90;;;;;;5054824;28;20041;-48
2021/12/16 00:33:30;;;;;;;18.17;7.90;;;8.00;99.90;;;;;;5052338;28;20076;-44
2021/12/16 00:35:56;;;;;;;26.50;8.10;;;8.00;99.90;;;;;;5060024;28;20569;-45
2021/12/16 00:38:22;;;;;;;22.83;7.57;;;8.00;99.90;;;;;;5065212;28;20112;-44
2021/12/16 00:40:48;;;;;;;27.33;8.55;;;8.10;99.90;;;;;;5048771;28;20052;-44
2021/12/16 00:48:58;;;;;;;25.83;8.95;;;8.10;99.90;;;;;;5048971;28;20091;-44
2021/12/16 00:56:33;;;;;;;20.90;7.82;;;8.20;99.90;;;;;;5049938;28;20487;-44
2021/12/16 00:59:02;;;;;;;22.65;7.72;;;8.20;99.90;;;;;;5061970;28;20050;-44
2021/12/16 01:01:44;;;;;;;22.50;8.05;;;8.20;99.90;;;;;;5050559;28;20131;-44
2021/12/16 01:50:43;;;;;;;16.38;7.07;;;8.40;99.90;;;;;;5049265;28;20132;-46
2021/12/16 01:53:21;;;;;;;14.90;6.88;;;8.40;99.90;;;;;;5049474;28;20439;-44
2021/12/16 01:56:03;;;;;;;19.45;6.90;;;8.50;99.90;;;;;;5047918;28;20044;-45
2021/12/16 01:58:32;;;;;;;18.40;7.38;;;8.50;99.90;;;;;;5052096;28;20048;-47
2021/12/16 02:03:47;;;;;;;16.63;6.53;;;8.50;99.90;;;;;;5053146;28;20053;-44
2021/12/16 02:08:51;;;;;;;15.93;7.00;;;8.50;99.90;;;;;;5064817;28;20041;-45
2021/12/16 02:27:34;;;;;;;16.67;6.43;;;8.60;99.90;;;;;;5057861;28;20052;-45
2021/12/16 02:37:53;;;;;;;17.90;6.35;;;8.50;99.90;;;;;;5070795;28;20139;-49
2021/12/16 02:40:20;;;;;;;24.67;7.75;;;8.50;99.90;;;;;;5034982;28;20487;-44
2021/12/16 02:43:07;;;;;;;18.03;6.80;;;8.50;99.90;;;;;;5051837;28;20041;-45
2021/12/16 02:48:29;;;;;;;16.50;6.30;;;8.50;99.90;;;;;;5053120;28;20144;-43
2021/12/16 02:51:06;;;;;;;19.58;5.88;;;8.50;99.90;;;;;;5065961;28;20055;-44
2021/12/16 02:53:34;;;;;;;15.02;6.05;;;8.40;99.90;;;;;;5052837;28;20061;-46
2021/12/16 02:56:00;;;;;;;21.33;6.88;;;8.40;99.90;;;;;;5051236;28;20111;-46
2021/12/16 02:58:27;;;;;;;14.10;5.65;;;8.40;99.90;;;;;;5052894;28;20185;-44
2021/12/16 03:01:03;;;;;;;13.10;6.43;;;8.40;99.90;;;;;;5052150;28;20045;-44
2021/12/16 03:03:29;;;;;;;15.95;5.95;;;8.40;99.90;;;;;;5050534;28;20482;-46
2021/12/16 03:05:56;;;;;;;11.52;5.32;;;8.40;99.90;;;;;;5046359;28;20056;-45
2021/12/16 03:08:23;;;;;;;11.95;5.45;;;8.40;99.90;;;;;;5062012;28;20159;-47
2021/12/16 03:13:27;;;;;;;17.77;6.72;;;8.40;99.90;;;;;;5049434;28;20132;-45
2021/12/16 03:21:41;;;;;;;23.23;7.07;;;8.30;99.90;;;;;;5059819;28;20131;-44
2021/12/16 03:37:14;;;;;;;22.98;7.32;;;8.10;99.90;;;;;;5051992;28;20348;-44
2021/12/16 03:39:45;;;;;;;20.65;6.32;;;8.10;99.90;;;;;;5050342;28;20037;-45
2021/12/16 03:42:15;;;;;;;13.30;6.78;;;8.10;99.90;;;;;;5050275;28;20076;-45
2021/12/16 03:44:56;;;;;;;20.50;6.53;;;8.10;99.90;;;;;;5049964;28;20479;-44
2021/12/16 03:47:47;;;;;;;21.95;7.32;;;8.00;99.90;;;;;;5064981;28;20509;-45
2021/12/16 03:50:18;;;;;;;14.10;7.40;;;8.00;99.90;;;;;;5057978;28;20087;-44
2021/12/16 03:52:44;;;;;;;24.88;6.88;;;8.00;99.90;;;;;;5053161;28;20056;-45
2021/12/16 03:55:11;;;;;;;17.10;8.07;;;7.90;99.90;;;;;;5048575;28;20518;-45
2021/12/16 03:57:38;;;;;;;15.10;7.15;;;7.90;99.90;;;;;;5050407;28;20136;-44
2021/12/16 04:00:21;;;;;;;14.27;6.18;;;7.90;99.90;;;;;;5052151;28;20052;-44
2021/12/16 04:02:48;;;;;;;14.63;6.95;;;7.90;99.90;;;;;;5042501;28;1214206;-44
2021/12/16 04:05:16;;;;;;;16.88;6.55;;;7.80;99.90;;;;;;5059345;28;20048;-43
2021/12/16 04:07:43;;;;;;;15.15;6.75;;;7.80;99.90;;;;;;5052635;28;20385;-44
2021/12/16 04:10:20;;;;;;;17.90;8.00;;;7.70;99.90;;;;;;5069275;28;20048;-44
2021/12/16 04:12:48;;;;;;;18.40;7.40;;;7.70;99.90;;;;;;5068399;28;20132;-44
2021/12/16 04:15:14;;;;;;;14.43;7.10;;;7.70;99.90;;;;;;5056561;28;20044;-44
2021/12/16 04:17:40;;;;;;;21.38;8.05;;;7.70;99.90;;;;;;5071035;28;20164;-44
2021/12/16 04:20:10;;;;;;;18.92;7.55;;;7.70;99.90;;;;;;5055965;28;20041;-44
2021/12/16 04:22:42;;;;;;;22.02;7.85;;;7.70;99.90;;;;;;5049206;28;20048;-44
2021/12/16 04:25:20;;;;;;;22.67;7.90;;;7.70;99.90;;;;;;5050418;28;20059;-44
2021/12/16 04:27:50;;;;;;;21.52;7.70;;;7.70;99.90;;;;;;5050850;28;20032;-46
2021/12/16 04:30:18;;;;;;;17.80;7.50;;;7.70;99.90;;;;;;5052908;28;20040;-45
2021/12/16 04:32:44;;;;;;;;;;;7.70;99.90;;;;;;5069654;28;20044;-45
2021/12/16 04:35:11;;;;;;;22.00;7.90;;;7.80;99.90;;;;;;5061729;28;19920;-45
2021/12/16 04:37:38;;;;;;;18.63;7.78;;;7.70;99.90;;;;;;5057826;28;20072;-44
2021/12/16 04:40:08;;;;;;;22.92;8.50;;;7.70;99.90;;;;;;5061314;28;20078;-44
2021/12/16 04:42:36;;;;;;;18.38;7.22;;;7.70;99.90;;;;;;5058919;28;20045;-44
2021/12/16 04:45:10;;;;;;;19.13;7.35;;;7.70;99.90;;;;;;5062795;28;20071;-45
2021/12/16 04:47:37;;;;;;;19.55;6.70;;;7.70;99.90;;;;;;5061728;28;20044;-45
2021/12/16 04:50:05;;;;;;;17.15;7.30;;;7.60;99.90;;;;;;5090113;28;20063;-44
2021/12/16 04:52:31;;;;;;;;;;;7.60;99.90;;;;;;5068135;28;20028;-45
2021/12/16 04:54:57;;;;;;;16.55;6.72;;;7.50;99.90;;;;;;5064556;28;20406;-44
2021/12/16 04:57:23;;;;;;;19.27;8.02;;;7.50;99.90;;;;;;5050520;28;20414;-44
2021/12/16 04:59:49;;;;;;;17.63;7.03;;;7.50;99.90;;;;;;5020769;28;20041;-44
2021/12/16 05:02:22;;;;;;;21.38;7.13;;;7.40;99.90;;;;;;5050966;28;20335;-45
2021/12/16 05:04:49;;;;;;;24.30;7.20;;;7.40;99.90;;;;;;5062317;28;20067;-44
2021/12/16 05:07:15;;;;;;;11.20;6.55;;;7.30;99.90;;;;;;5053717;28;20179;-44
2021/12/16 05:12:18;;;;;;;20.02;7.30;;;7.30;99.90;;;;;;5049465;28;20103;-46
2021/12/16 05:14:45;;;;;;;22.05;7.50;;;7.20;99.90;;;;;;5064620;28;20090;-43
2021/12/16 05:17:28;;;;;;;20.05;7.93;;;7.20;99.90;;;;;;5063355;28;20510;-44
2021/12/16 05:19:56;;;;;;;17.48;8.15;;;7.10;99.90;;;;;;5047033;28;20063;-45
2021/12/16 05:25:16;;;;;;;17.25;7.05;;;7.20;99.90;;;;;;5047961;28;20049;-45
2021/12/16 05:27:42;;;;;;;16.42;7.35;;;7.10;99.90;;;;;;5086721;28;20052;-45
2021/12/16 05:30:09;;;;;;;20.27;7.50;;;7.20;99.90;;;;;;5060496;28;20406;-46
2021/12/16 05:32:36;;;;;;;21.85;7.63;;;7.20;99.90;;;;;;5091023;28;20044;-43
2021/12/16 05:35:02;;;;;;;24.23;8.70;;;7.20;99.90;;;;;;5069197;28;20044;-47
2021/12/16 05:37:28;;;;;;;21.88;8.20;;;7.20;99.90;;;;;;5058949;28;20535;-44
2021/12/16 05:39:54;;;;;;;21.98;7.70;;;7.30;99.90;;;;;;5030323;28;20037;-44
2021/12/16 05:42:20;;;;;;;22.70;8.57;;;7.30;99.90;;;;;;5047485;28;20045;-44
2021/12/16 05:44:46;;;;;;;18.88;8.35;;;7.30;99.90;;;;;;5030834;28;20045;-46
2021/12/16 05:47:12;;;;;;;19.98;8.70;;;7.30;99.90;;;;;;5057265;28;20033;-44
2021/12/16 05:49:38;;;;;;;22.38;8.27;;;7.40;99.90;;;;;;5055697;28;20048;-44
2021/12/16 05:52:05;;;;;;;25.85;7.57;;;7.30;99.90;;;;;;5067860;28;20040;-45
2021/12/16 05:54:32;;;;;;;17.98;7.95;;;7.40;99.90;;;;;;5067740;28;20048;-44
2021/12/16 05:56:58;;;;;;;18.95;8.00;;;7.30;99.90;;;;;;5057416;28;20434;-44
2021/12/16 05:59:24;;;;;;;18.08;8.30;;;7.30;99.90;;;;;;5048757;28;20045;-45
2021/12/16 06:01:50;;;;;;;16.88;8.02;;;7.30;99.90;;;;;;5049062;28;20033;-44
2021/12/16 06:04:16;;;;;;;19.92;8.70;;;7.30;99.90;;;;;;5048774;28;20142;-45
2021/12/16 06:06:42;;;;;;;21.85;8.13;;;7.30;99.90;;;;;;5050186;28;20037;-46
2021/12/16 06:09:09;;;;;;;19.23;7.10;;;7.20;99.90;;;;;;5050619;28;20360;-44
2021/12/16 06:11:41;;;;;;;24.23;8.43;;;7.20;99.90;;;;;;5051022;28;20106;-46
2021/12/16 06:14:22;;;;;;;18.70;7.30;;;7.30;99.90;;;;;;5051052;28;20040;-46
2021/12/16 06:27:51;;;;;;;17.65;7.65;;;7.40;99.90;;;;;;5054315;28;20106;-45
2021/12/16 06:30:29;;;;;;;15.10;7.13;;;7.40;99.90;;;;;;5055783;28;20178;-45
2021/12/16 06:32:56;;;;;;;18.40;7.32;;;7.40;99.90;;;;;;5090907;28;20110;-49
2021/12/16 06:35:22;;;;;;;16.00;7.70;;;7.40;99.90;;;;;;5067736;28;20582;-47
2021/12/16 06:37:49;;;;;;;19.10;7.57;;;7.40;99.90;;;;;;5066309;28;20394;-46
2021/12/16 06:40:17;;;;;;;20.90;7.70;;;7.40;99.90;;;;;;5065731;28;20162;-45
2021/12/16 06:42:44;;;;;;;17.77;7.80;;;7.40;99.90;;;;;;5066347;28;20046;-45
2021/12/16 06:45:16;;;;;;;18.30;7.47;;;7.40;99.90;;;;;;5068551;28;20036;-46
2021/12/16 06:47:48;;;;;;;19.85;8.32;;;7.40;99.90;;;;;;5064904;28;20047;-45
2021/12/16 06:50:25;;;;;;;21.70;7.85;;;7.50;99.90;;;;;;5068330;28;20046;-45
2021/12/16 06:52:56;;;;;;;19.88;8.10;;;7.50;99.90;;;;;;5067261;28;20043;-44
2021/12/16 06:55:36;;;;;;;18.20;8.95;;;7.50;99.90;;;;;;5037357;28;20112;-45
2021/12/16 06:58:19;;;;;;;20.65;8.88;;;7.50;99.90;;;;;;5054136;28;20033;-45
2021/12/16 07:00:49;;;;;;;21.58;8.93;;;7.50;99.90;;;;;;5050647;28;20044;-45
2021/12/16 07:03:21;;;;;;;23.48;8.57;;;7.50;99.90;;;;;;5070221;28;20048;-45
2021/12/16 07:05:56;;;;;;;21.50;9.13;;;7.50;99.90;;;;;;5063300;28;20502;-44
2021/12/16 07:08:24;;;;;;;19.77;9.43;;;7.50;99.90;;;;;;5050632;28;20037;-45
2021/12/16 07:10:54;;;;;;;17.35;8.88;;;7.50;99.90;;;;;;5051025;28;20064;-45
2021/12/16 07:13:29;;;;;;;24.83;8.88;;;7.50;99.90;;;;;;5049490;28;20041;-46
2021/12/16 07:15:57;;;;;;;25.55;9.05;;;7.50;99.90;;;;;;5044044;28;20083;-45
2021/12/16 07:18:24;;;;;;;24.55;9.90;;;7.50;99.90;;;;;;5088290;28;20382;-44
2021/12/16 07:20:50;;;;;;;29.67;9.40;;;7.50;99.90;;;;;;5033697;28;20048;-44
2021/12/16 07:23:16;;;;;;;24.90;10.38;;;7.50;99.90;;;;;;5041121;28;20452;-45
2021/12/16 07:25:42;;;;;;;14.88;8.27;;;7.50;99.90;;;;;;5057957;28;20067;-45
2021/12/16 07:28:09;;;;;;;20.17;9.35;;;7.50;99.90;;;;;;5045346;28;20119;-46
2021/12/16 07:30:42;;;;;;;25.65;10.00;;;7.50;99.90;;;;;;5057385;28;20222;-44
2021/12/16 07:33:12;;;;;;;22.15;8.82;;;7.50;99.90;;;;;;5039469;28;20116;-45
2021/12/16 07:35:39;;;;;;;33.08;9.85;;;7.60;99.90;;;;;;5061853;28;20127;-47
2021/12/16 07:38:06;;;;;;;;;;;7.50;99.90;;;;;;5041018;28;20123;-44
2021/12/16 07:40:35;;;;;;;21.25;8.38;;;7.50;99.90;;;;;;5069667;28;19920;-45
2021/12/16 07:45:38;;;;;;;23.00;8.07;;;7.50;99.90;;;;;;5070129;28;20079;-45
2021/12/16 07:48:05;;;;;;;22.90;8.18;;;7.50;99.90;;;;;;5067530;28;20538;-44
2021/12/16 07:50:32;;;;;;;18.85;7.68;;;7.50;99.90;;;;;;5060506;28;20114;-45
2021/12/16 07:52:58;;;;;;;17.05;7.63;;;7.50;99.90;;;;;;5069412;28;20045;-44
2021/12/16 07:55:24;;;;;;;19.27;8.02;;;7.40;99.90;;;;;;5069870;28;20060;-44
2021/12/16 07:57:50;;;;;;;24.48;9.13;;;7.40;99.90;;;;;;5065572;28;20127;-46
2021/12/16 08:00:20;;;;;;;25.85;8.75;;;7.40;99.90;;;;;;5036207;28;20379;-45
2021/12/16 08:02:46;;;;;;;24.25;9.30;;;7.40;99.90;;;;;;5099037;28;20047;-46
2021/12/16 08:05:15;;;;;;;21.30;8.40;;;7.30;99.90;;;;;;5052569;28;20430;-44
2021/12/16 08:07:44;;;;;;;20.55;8.60;;;7.30;99.90;;;;;;5069329;28;20060;-44
2021/12/16 08:10:15;;;;;;;21.75;9.55;;;7.30;99.90;;;;;;5058927;28;20518;-45
2021/12/16 08:12:41;;;;;;;20.20;8.43;;;7.30;99.90;;;;;;5069212;28;20080;-44
2021/12/16 08:15:09;;;;;;;24.95;8.88;;;7.30;99.90;;;;;;5057297;28;20048;-44
2021/12/16 08:17:35;;;;;;;22.85;9.18;;;7.30;99.90;;;;;;5049448;28;20266;-45
2021/12/16 08:20:04;;;;;;;24.73;9.65;;;7.30;99.90;;;;;;5062782;28;20158;-45
2021/12/16 08:22:31;;;;;;;21.45;9.63;;;7.30;99.90;;;;;;5056649;28;20524;-44
2021/12/16 08:24:57;;;;;;;28.30;10.07;;;7.30;99.90;;;;;;5069096;28;20047;-43
2021/12/16 08:27:23;;;;;;;22.25;9.80;;;7.30;99.90;;;;;;5068938;28;20139;-45
2021/12/16 08:29:49;;;;;;;25.17;9.70;;;7.30;99.90;;;;;;5057235;28;20045;-44
2021/12/16 08:32:15;;;;;;;18.10;9.30;;;7.30;99.90;;;;;;5056841;28;20579;-44
2021/12/16 08:34:45;;;;;;;22.40;9.50;;;7.30;99.90;;;;;;5067422;28;20051;-45
2021/12/16 08:37:13;;;;;;;24.92;9.90;;;7.30;99.90;;;;;;5052439;28;20045;-44
2021/12/16 08:39:40;;;;;;;26.05;9.80;;;7.30;99.90;;;;;;5068626;28;20431;-45
2021/12/16 08:42:09;;;;;;;19.13;10.00;;;7.30;99.90;;;;;;5068566;28;20124;-45
2021/12/16 08:44:35;;;;;;;22.65;9.73;;;7.40;99.90;;;;;;5068541;28;20048;-44
2021/12/16 08:47:11;;;;;;;23.88;10.55;;;7.40;99.90;;;;;;5051882;28;20136;-45
2021/12/16 08:49:38;;;;;;;20.95;9.85;;;7.40;99.90;;;;;;5068856;28;20102;-44
2021/12/16 08:52:14;;;;;;;22.02;10.15;;;7.40;99.90;;;;;;5058139;28;20071;-44
2021/12/16 08:54:40;;;;;;;28.10;9.77;;;7.50;99.90;;;;;;5068434;28;20048;-44
2021/12/16 08:57:06;;;;;;;25.50;11.05;;;7.50;99.90;;;;;;5068494;28;20083;-45
2021/12/16 08:59:32;;;;;;;21.50;11.27;;;7.50;99.90;;;;;;5068329;28;20090;-46
2021/12/16 09:02:00;;;;;;;26.02;10.65;;;7.60;99.90;;;;;;5040096;28;20041;-44
2021/12/16 09:04:27;;;;;;;27.58;10.63;;;7.60;99.90;;;;;;5050690;28;20045;-44
2021/12/16 09:06:56;;;;;;;19.70;11.02;;;7.60;99.90;;;;;;5062122;28;20475;-45
2021/12/16 09:09:22;;;;;;;25.80;10.77;;;7.60;99.90;;;;;;5069811;28;20568;-46
2021/12/16 09:12:13;;;;;;;24.05;11.05;;;7.60;99.90;;;;;;5051598;28;20044;-47
2021/12/16 09:14:42;;;;;;;33.75;11.95;;;7.60;99.90;;;;;;5051489;28;20383;-46
2021/12/16 09:17:12;;;;;;;33.20;12.15;;;7.60;99.90;;;;;;5065079;28;20386;-45
2021/12/16 09:19:43;;;;;;;32.05;12.57;;;7.70;99.90;;;;;;5049733;28;20049;-46
2021/12/16 09:22:10;;;;;;;25.98;12.82;;;7.70;99.90;;;;;;5048305;28;20096;-44
2021/12/16 09:24:36;;;;;;;;;;;7.70;99.90;;;;;;5048508;28;20040;-46
2021/12/16 09:27:03;;;;;;;35.85;13.55;;;7.70;99.90;;;;;;5049669;28;20334;-44
2021/12/16 09:29:29;;;;;;;28.75;12.95;;;7.80;99.90;;;;;;5049403;28;20126;-45
2021/12/16 09:31:55;;;;;;;33.80;12.65;;;6.70;99.90;;;;;;5048057;28;20051;-44
2021/12/16 09:34:21;;;;;;;33.05;13.02;;;7.90;99.90;;;;;;5031247;28;20052;-45
2021/12/16 09:36:47;;;;;;;25.30;12.15;;;7.90;99.90;;;;;;5048115;28;20041;-46
2021/12/16 09:39:16;;;;;;;34.13;13.35;;;8.00;99.90;;;;;;5043054;28;20045;-46
2021/12/16 09:41:47;;;;;;;34.70;14.23;;;8.00;99.90;;;;;;5050782;28;20116;-47
2021/12/16 09:44:14;;;;;;;35.03;14.00;;;8.10;99.90;;;;;;5049476;28;20037;-45
2021/12/16 09:46:43;;;;;;;;;;;8.10;99.90;;;;;;5065055;28;20048;-44
2021/12/16 09:49:09;;;;;;;30.38;14.70;;;8.20;99.90;;;;;;5081669;28;20283;-47
2021/12/16 09:51:41;;;;;;;32.17;14.52;;;8.20;99.90;;;;;;5081462;28;20041;-45
2021/12/16 09:54:10;;;;;;;33.33;14.10;;;8.30;99.90;;;;;;5048016;28;20037;-47
2021/12/16 09:56:38;;;;;;;36.10;15.27;;;8.30;99.90;;;;;;5049327;28;20041;-46
2021/12/16 09:59:07;;;;;;;42.97;14.98;;;8.30;99.90;;;;;;5049724;28;20045;-46
2021/12/16 10:01:34;;;;;;;34.42;15.68;;;8.30;99.90;;;;;;5061562;28;20118;-45
2021/12/16 10:04:03;;;;;;;41.95;15.75;;;8.40;99.90;;;;;;5047408;28;20491;-48
2021/12/16 10:06:32;;;;;;;30.67;15.25;;;8.40;99.90;;;;;;5051773;28;20053;-46
2021/12/16 10:09:04;;;;;;;36.05;16.00;;;8.40;99.90;;;;;;5060996;28;20037;-47
2021/12/16 10:11:31;;;;;;;34.85;13.93;;;8.40;99.90;;;;;;5048054;28;20426;-48
2021/12/16 10:19:11;;;;;;;40.70;15.88;;;8.50;99.90;;;;;;5064744;28;20531;-46
2021/12/16 10:21:40;;;;;;;42.33;14.18;;;8.50;99.90;;;;;;5051684;28;20045;-45
2021/12/16 10:24:29;;;;;;;35.97;14.02;;;8.50;99.90;;;;;;5053069;28;20076;-45
2021/12/16 10:27:09;;;;;;;37.85;15.95;;;8.60;99.90;;;;;;5053208;28;20041;-49
2021/12/16 10:29:37;;;;;;;44.80;16.50;;;8.60;99.90;;;;;;5051156;28;20125;-47
2021/12/16 10:32:05;;;;;;;41.10;15.10;;;8.60;99.90;;;;;;5052809;28;20418;-45
2021/12/16 10:34:31;;;;;;;36.97;15.20;;;8.60;99.90;;;;;;5051199;28;20521;-46
2021/12/16 10:36:59;;;;;;;46.90;16.33;;;8.70;99.90;;;;;;5052990;28;20095;-48
2021/12/16 10:39:26;;;;;;;34.65;15.38;;;8.60;99.90;;;;;;5084678;28;20049;-46
2021/12/16 10:41:58;;;;;;;41.17;15.23;;;8.70;99.90;;;;;;5052420;28;20037;-46
2021/12/16 10:44:30;;;;;;;40.92;15.77;;;8.70;99.90;;;;;;5063324;28;20051;-45
2021/12/16 10:47:01;;;;;;;35.33;15.50;;;8.70;99.90;;;;;;5052749;28;20052;-45
2021/12/16 10:49:52;;;;;;;40.88;15.15;;;8.70;99.90;;;;;;5052630;28;20048;-45
2021/12/16 10:52:27;;;;;;;37.55;16.27;;;8.80;99.90;;;;;;5067847;28;20080;-46
2021/12/16 10:54:55;;;;;;;34.20;15.40;;;8.70;99.90;;;;;;5051151;28;20052;-46
2021/12/16 10:57:25;;;;;;;43.08;16.92;;;8.80;99.90;;;;;;5052525;28;20077;-46
2021/12/16 10:59:57;;;;;;;38.40;16.45;;;8.80;99.90;;;;;;5052532;28;20053;-46
2021/12/16 11:02:29;;;;;;;31.15;15.65;;;8.80;99.90;;;;;;5068194;28;20037;-45
2021/12/16 11:05:02;;;;;;;37.25;14.70;;;8.80;99.90;;;;;;5070699;28;20056;-46
2021/12/16 11:07:39;;;;;;;49.00;15.77;;;8.80;99.90;;;;;;5054750;28;20044;-47
2021/12/16 11:10:25;;;;;;;35.00;14.97;;;8.90;99.90;;;;;;5084271;28;20057;-46
2021/12/16 11:12:55;;;;;;;37.47;15.10;;;8.90;99.90;;;;;;5084024;28;20052;-45
2021/12/16 11:15:43;;;;;;;32.03;15.05;;;8.90;99.90;;;;;;5059820;28;20048;-45
2021/12/16 11:18:14;;;;;;;36.88;14.23;;;8.90;99.90;;;;;;5033950;28;20052;-45
2021/12/16 11:20:56;;;;;;;36.38;13.80;;;8.90;99.90;;;;;;5051733;28;20128;-45
2021/12/16 11:23:26;;;;;;;28.45;12.57;;;8.90;99.90;;;;;;5056517;28;20043;-46
2021/12/16 11:26:03;;;;;;;27.30;12.02;;;8.90;99.90;;;;;;5050556;28;20039;-46
2021/12/16 11:28:46;;;;;;;32.28;13.65;;;8.90;99.90;;;;;;5066765;28;20048;-46
2021/12/16 11:31:32;;;;;;;37.95;12.07;;;8.90;99.90;;;;;;5059789;28;20207;-45
2021/12/16 11:34:06;;;;;;;30.40;10.85;;;8.90;99.90;;;;;;5054972;28;20047;-46
2021/12/16 11:36:45;;;;;;;22.45;10.27;;;8.90;99.90;;;;;;5051293;28;20040;-45
2021/12/16 11:39:16;;;;;;;24.77;11.13;;;9.00;99.90;;;;;;5050272;28;20128;-45
2021/12/16 11:41:57;;;;;;;36.83;14.45;;;9.00;99.90;;;;;;5051717;28;20044;-45
2021/12/16 11:44:39;;;;;;;37.35;13.48;;;9.00;99.90;;;;;;5049766;28;20132;-45
2021/12/16 11:47:25;;;;;;;30.67;12.75;;;9.00;99.90;;;;;;5049905;28;20045;-47
2021/12/16 11:50:03;;;;;;;31.25;13.25;;;9.00;99.90;;;;;;5051577;28;20063;-46
2021/12/16 11:52:35;;;;;;;77.82;31.98;;;9.00;99.90;;;;;;5060867;28;20044;-48
2021/12/16 11:55:12;;;;;;;49.85;25.60;;;9.00;99.90;;;;;;5032831;28;20048;-46
2021/12/16 11:57:44;;;;;;;39.67;19.60;;;9.00;99.90;;;;;;5049932;28;20129;-48
2021/12/16 12:00:21;;;;;;;38.35;16.77;;;9.00;99.90;;;;;;5050853;28;20048;-44
2021/12/16 12:02:56;;;;;;;41.05;16.55;;;9.00;99.90;;;;;;5054803;28;20041;-45
2021/12/16 12:05:34;;;;;;;33.20;13.93;;;9.00;99.90;;;;;;5070832;28;20091;-48
2021/12/16 12:08:15;;;;;;;32.05;14.80;;;9.10;99.90;;;;;;5050469;28;20095;-45
2021/12/16 12:11:13;;;;;;;39.08;16.17;;;9.00;99.90;;;;;;5064058;28;20118;-45
2021/12/16 12:13:42;;;;;;;141.00;62.90;;;9.10;99.90;;;;;;5032194;28;20495;-45
2021/12/16 12:16:19;;;;;;;80.53;40.58;;;9.10;99.90;;;;;;5065811;28;20339;-44
2021/12/16 12:18:59;;;;;;;78.07;29.87;;;9.10;99.90;;;;;;5052654;28;20072;-45
2021/12/16 12:21:39;;;;;;;57.78;24.35;;;9.10;99.90;;;;;;5050527;28;20791;-46
2021/12/16 12:24:08;;;;;;;47.92;18.60;;;9.10;99.90;;;;;;5032002;28;20138;-48
2021/12/16 12:26:44;;;;;;;44.88;18.95;;;9.10;99.90;;;;;;5049770;28;20197;-45
2021/12/16 12:29:28;;;;;;;40.25;18.83;;;9.00;99.90;;;;;;5049852;28;20037;-45
2021/12/16 12:32:08;;;;;;;44.00;19.27;;;9.10;99.90;;;;;;5049168;28;20040;-45
2021/12/16 12:34:37;;;;;;;39.60;17.77;;;9.00;99.90;;;;;;5050299;28;20066;-45
2021/12/16 12:37:07;;;;;;;44.60;18.85;;;9.10;99.90;;;;;;5045765;28;20568;-44
2021/12/16 12:39:38;;;;;;;41.42;17.40;;;9.10;99.90;;;;;;5048630;28;20258;-47
2021/12/16 12:42:07;;;;;;;41.30;17.88;;;9.10;99.90;;;;;;5049869;28;20040;-45
2021/12/16 12:44:33;;;;;;;32.67;16.05;;;9.10;99.90;;;;;;5078531;28;20474;-45
2021/12/16 12:47:02;;;;;;;39.93;16.87;;;9.10;99.90;;;;;;5048729;28;20080;-45
2021/12/16 12:49:30;;;;;;;36.03;16.23;;;9.10;99.90;;;;;;5048332;28;20589;-45
2021/12/16 12:52:11;;;;;;;31.80;14.45;;;9.10;99.90;;;;;;5090621;28;20044;-47
2021/12/16 12:54:39;;;;;;;34.25;15.43;;;9.10;99.90;;;;;;5031700;28;20076;-45
2021/12/16 12:57:25;;;;;;;37.75;17.48;;;9.10;99.90;;;;;;5049053;28;20075;-45
2021/12/16 12:59:54;;;;;;;34.00;15.20;;;9.10;99.90;;;;;;5048523;28;20500;-47
2021/12/16 13:02:29;;;;;;;31.50;14.73;;;9.10;99.90;;;;;;5048456;28;20037;-45
2021/12/16 13:04:58;;;;;;;30.30;15.95;;;9.10;99.90;;;;;;5048322;28;20068;-45
2021/12/16 13:07:39;;;;;;;33.17;15.82;;;9.10;99.90;;;;;;5033926;28;20092;-45
2021/12/16 13:10:17;;;;;;;33.83;15.52;;;9.10;99.90;;;;;;5031541;28;20135;-45
2021/12/16 13:13:05;;;;;;;30.75;14.65;;;9.10;99.90;;;;;;5049499;28;20063;-45
2021/12/16 13:15:48;;;;;;;30.67;15.82;;;9.20;99.90;;;;;;5040199;28;20136;-45
2021/12/16 13:26:37;;;;;;;31.25;14.80;;;9.10;99.90;;;;;;5065478;28;20048;-45
2021/12/16 13:29:13;;;;;;;;;;;9.10;99.90;;;;;;5064368;28;20117;-46
2021/12/16 13:32:06;;;;;;;28.65;14.32;;;9.10;99.90;;;;;;5067490;28;19916;-45
2021/12/16 13:35:11;;;;;;;37.53;15.77;;;9.10;99.90;;;;;;5056770;28;20166;-46
2021/12/16 13:37:41;;;;;;;28.20;14.90;;;9.10;99.90;;;;;;5067789;28;20059;-47
2021/12/16 13:40:22;;;;;;;34.42;15.57;;;9.10;99.90;;;;;;5067830;28;20299;-46
2021/12/16 13:42:56;;;;;;;27.50;15.27;;;9.10;99.90;;;;;;5066793;28;20457;-46
2021/12/16 13:45:42;;;;;;;33.13;16.20;;;9.20;99.90;;;;;;5048996;28;20037;-45
2021/12/16 14:05:47;;;;;;;36.55;15.02;;;9.10;99.90;;;;;;5021564;28;20053;-47
2021/12/16 14:08:44;;;;;;;31.23;14.77;;;9.10;99.90;;;;;;5062472;28;20049;-45
2021/12/16 14:14:30;;;;;;;34.95;13.93;;;9.10;99.90;;;;;;5069714;28;20086;-48
2021/12/16 14:25:33;;;;;;;28.45;12.05;;;9.00;99.90;;;;;;5052640;28;20116;-46
2021/12/16 14:31:38;;;;;;;29.83;12.00;;;9.00;99.90;;;;;;5040621;28;20084;-46
2021/12/16 14:42:59;;;;;;;27.55;10.82;;;9.00;99.90;;;;;;5051296;28;20290;-46
2021/12/16 14:50:41;;;;;;;19.95;7.97;;;8.90;99.90;;;;;;5050761;28;20048;-47
2021/12/16 14:53:18;;;;;;;23.88;8.20;;;8.90;99.90;;;;;;5052203;28;20039;-46
2021/12/16 14:55:45;;;;;;;22.75;8.40;;;9.00;99.90;;;;;;5052259;28;20401;-47
2021/12/16 14:58:11;;;;;;;;;;;8.90;99.90;;;;;;5051314;28;20037;-45
2021/12/16 15:00:48;;;;;;;21.58;7.72;;;8.90;99.90;;;;;;5067105;28;19947;-46
2021/12/16 15:03:21;;;;;;;16.33;7.15;;;8.90;99.90;;;;;;5049991;28;20052;-44
2021/12/16 15:05:55;;;;;;;22.02;8.25;;;8.90;99.90;;;;;;5070630;28;20059;-42
2021/12/16 15:08:39;;;;;;;20.50;8.43;;;8.90;99.90;;;;;;5052507;28;20052;-46
2021/12/16 15:11:11;;;;;;;19.83;7.97;;;8.90;99.90;;;;;;5051623;28;20063;-48
2021/12/16 15:13:54;;;;;;;22.70;8.68;;;8.90;99.90;;;;;;5063630;28;20183;-44
2021/12/16 15:39:23;;;;;;;20.40;8.43;;;8.60;99.90;;;;;;5051668;28;20049;-44
2021/12/16 15:44:51;;;;;;;26.67;10.50;;;8.60;99.90;;;;;;5051381;28;20352;-42
2021/12/16 15:47:17;;;;;;;27.00;10.50;;;8.50;99.90;;;;;;5083208;28;20094;-44
2021/12/16 15:49:44;;;;;;;23.10;10.10;;;8.50;99.90;;;;;;5063140;28;20053;-42
2021/12/16 15:52:10;;;;;;;22.88;9.60;;;8.50;99.90;;;;;;5083833;28;20056;-45
2021/12/16 15:54:38;;;;;;;20.55;9.63;;;8.50;99.90;;;;;;5049899;28;20406;-46
2021/12/16 15:57:06;;;;;;;24.42;11.00;;;8.50;99.90;;;;;;5061062;28;20112;-44
2021/12/16 15:59:34;;;;;;;24.35;10.75;;;8.50;99.90;;;;;;5050079;28;20507;-47
2021/12/16 16:02:00;;;;;;;27.77;11.65;;;8.50;99.90;;;;;;5050630;28;20074;-44
2021/12/16 16:04:34;;;;;;;27.23;11.37;;;8.50;99.90;;;;;;5049201;28;20045;-43
2021/12/16 16:07:05;;;;;;;31.23;11.13;;;8.50;99.90;;;;;;5053193;28;20036;-45
2021/12/16 16:09:40;;;;;;;27.30;11.23;;;8.50;99.90;;;;;;5051174;28;20040;-45
2021/12/16 16:12:11;;;;;;;26.13;11.40;;;8.50;99.90;;;;;;5050720;28;20487;-45
2021/12/16 16:14:39;;;;;;;29.83;12.05;;;8.50;99.90;;;;;;5057537;28;20098;-45
2021/12/16 16:17:13;;;;;;;25.85;10.90;;;8.50;99.90;;;;;;5054282;28;20380;-45
2021/12/16 16:19:41;;;;;;;29.30;14.23;;;8.50;99.90;;;;;;5035319;28;20136;-46
2021/12/16 16:22:07;;;;;;;25.73;11.70;;;8.50;99.90;;;;;;5016719;28;20464;-45
2021/12/16 16:24:37;;;;;;;28.15;12.80;;;8.60;99.90;;;;;;5035526;28;20121;-44
2021/12/16 16:27:26;;;;;;;31.98;11.93;;;8.50;99.90;;;;;;5034765;28;20107;-44
2021/12/16 16:29:56;;;;;;;31.00;13.10;;;8.50;99.90;;;;;;5051183;28;20328;-44
2021/12/16 16:32:25;;;;;;;33.05;12.90;;;8.50;99.90;;;;;;5049521;28;20062;-43
2021/12/16 16:34:54;;;;;;;27.85;12.57;;;8.60;99.90;;;;;;5050561;28;20102;-44
2021/12/16 16:37:22;;;;;;;30.02;12.88;;;8.60;99.90;;;;;;5050729;28;20041;-45
2021/12/16 16:39:54;;;;;;;29.45;13.10;;;8.60;99.90;;;;;;5049850;28;20123;-44
2021/12/16 16:42:23;;;;;;;27.85;12.02;;;8.60;99.90;;;;;;5063472;28;20417;-43
2021/12/16 16:44:53;;;;;;;34.05;13.73;;;8.50;99.90;;;;;;5067819;28;20063;-45
2021/12/16 16:47:46;;;;;;;32.72;13.25;;;8.60;99.90;;;;;;5068491;28;20087;-44
2021/12/16 16:50:13;;;;;;;29.17;12.98;;;8.60;99.90;;;;;;5067440;28;20040;-43
2021/12/16 16:52:46;;;;;;;32.38;14.20;;;8.60;99.90;;;;;;5066806;28;20079;-44
2021/12/16 16:55:31;;;;;;;31.15;12.88;;;8.60;99.90;;;;;;5061603;28;20090;-44
2021/12/16 16:58:14;;;;;;;37.13;14.15;;;8.60;99.90;;;;;;5065519;28;20040;-44
2021/12/16 17:00:44;;;;;;;31.27;13.43;;;8.60;99.90;;;;;;5067267;28;20124;-44
2021/12/16 17:03:19;;;;;;;33.30;14.18;;;8.60;99.90;;;;;;5092327;28;20068;-44
2021/12/16 17:05:52;;;;;;;35.47;14.25;;;8.60;99.90;;;;;;5066782;28;20068;-47
2021/12/16 17:08:34;;;;;;;39.50;15.00;;;8.60;99.90;;;;;;5065638;28;20370;-44
2021/12/16 17:11:14;;;;;;;43.20;15.63;;;8.60;99.90;;;;;;5066938;28;20174;-45